sensor_id;sensor_type;location;lat;lon;timestamp;pressure;altitude;pressure_sealevel;temperature;humidity
48404;BME280;34202;52.536;6.042;2023-04-05T00:01:07;102695.36;;;2.90;74.26
48404;BME280;34202;52.536;6.042;2023-04-05T00:06:08;102693.67;;;2.83;74.19
48404;BME280;34202;52.536;6.042;2023-04-05T00:11:12;102698.95;;;2.77;74.41
48404;BME280;34202;52.536;6.042;2023-04-05T00:16:12;102691.76;;;2.73;74.70
48404;BME280;34202;52.536;6.042;2023-04-05T00:21:12;102678.68;;;2.67;74.71
48404;BME280;34202;52.536;6.042;2023-04-05T00:26:13;102679.11;;;2.63;74.69
48404;BME280;34202;52.536;6.042;2023-04-05T00:31:14;102676.04;;;2.56;74.92
48404;BME280;34202;52.536;6.042;2023-04-05T00:36:15;102665.20;;;2.51;75.16
48404;BME280;34202;52.536;6.042;2023-04-05T00:41:16;102665.14;;;2.45;75.18
48404;BME280;34202;52.536;6.042;2023-04-05T00:46:16;102664.63;;;2.38;75.26
48404;BME280;34202;52.536;6.042;2023-04-05T00:51:17;102656.91;;;2.33;75.40
48404;BME280;34202;52.536;6.042;2023-04-05T00:56:19;102656.90;;;2.28;75.64
48404;BME280;34202;52.536;6.042;2023-04-05T01:01:20;102655.35;;;2.23;75.67
48404;BME280;34202;52.536;6.042;2023-04-05T01:11:31;102654.27;;;2.09;76.42
48404;BME280;34202;52.536;6.042;2023-04-05T01:16:32;102650.59;;;2.06;76.35
48404;BME280;34202;52.536;6.042;2023-04-05T01:21:38;102649.02;;;2.03;76.31
48404;BME280;34202;52.536;6.042;2023-04-05T01:36:56;102643.48;;;1.88;76.84
48404;BME280;34202;52.536;6.042;2023-04-05T01:41:57;102633.64;;;1.83;77.20
48404;BME280;34202;52.536;6.042;2023-04-05T01:46:58;102631.15;;;1.77;77.55
48404;BME280;34202;52.536;6.042;2023-04-05T01:51:58;102628.95;;;1.72;77.55
48404;BME280;34202;52.536;6.042;2023-04-05T01:56:59;102627.42;;;1.67;77.38
48404;BME280;34202;52.536;6.042;2023-04-05T02:01:59;102622.06;;;1.64;77.31
48404;BME280;34202;52.536;6.042;2023-04-05T02:07:00;102616.45;;;1.61;77.64
48404;BME280;34202;52.536;6.042;2023-04-05T02:12:00;102612.41;;;1.57;77.53
48404;BME280;34202;52.536;6.042;2023-04-05T02:17:00;102611.73;;;1.52;77.36
48404;BME280;34202;52.536;6.042;2023-04-05T02:22:02;102606.53;;;1.47;77.57
48404;BME280;34202;52.536;6.042;2023-04-05T02:27:02;102606.65;;;1.41;77.74
48404;BME280;34202;52.536;6.042;2023-04-05T02:32:03;102608.94;;;1.37;77.87
48404;BME280;34202;52.536;6.042;2023-04-05T02:37:03;102604.61;;;1.31;78.06
48404;BME280;34202;52.536;6.042;2023-04-05T02:42:04;102595.39;;;1.27;78.10
48404;BME280;34202;52.536;6.042;2023-04-05T02:47:04;102595.16;;;1.24;78.27
48404;BME280;34202;52.536;6.042;2023-04-05T02:52:04;102588.61;;;1.19;78.63
48404;BME280;34202;52.536;6.042;2023-04-05T02:57:05;102584.70;;;1.12;78.97
48404;BME280;34202;52.536;6.042;2023-04-05T03:02:09;102585.52;;;1.05;79.16
48404;BME280;34202;52.536;6.042;2023-04-05T03:07:10;102586.96;;;0.99;79.58
48404;BME280;34202;52.536;6.042;2023-04-05T03:12:13;102582.77;;;0.96;79.72
48404;BME280;34202;52.536;6.042;2023-04-05T03:17:13;102580.60;;;0.94;79.99
48404;BME280;34202;52.536;6.042;2023-04-05T03:22:14;102578.94;;;0.90;79.94
48404;BME280;34202;52.536;6.042;2023-04-05T03:27:15;102576.61;;;0.86;80.34
48404;BME280;34202;52.536;6.042;2023-04-05T03:32:15;102570.35;;;0.83;80.09
48404;BME280;34202;52.536;6.042;2023-04-05T03:37:16;102571.36;;;0.81;80.46
48404;BME280;34202;52.536;6.042;2023-04-05T03:42:16;102565.09;;;0.76;80.62
48404;BME280;34202;52.536;6.042;2023-04-05T03:47:17;102564.17;;;0.74;80.74
48404;BME280;34202;52.536;6.042;2023-04-05T03:52:17;102565.32;;;0.71;80.80
48404;BME280;34202;52.536;6.042;2023-04-05T03:57:17;102566.29;;;0.67;80.86
48404;BME280;34202;52.536;6.042;2023-04-05T04:02:17;102565.52;;;0.64;80.97
48404;BME280;34202;52.536;6.042;2023-04-05T04:07:18;102562.35;;;0.61;81.32
48404;BME280;34202;52.536;6.042;2023-04-05T04:12:18;102560.88;;;0.56;81.57
48404;BME280;34202;52.536;6.042;2023-04-05T04:22:27;102559.39;;;0.50;82.02
48404;BME280;34202;52.536;6.042;2023-04-05T04:27:41;102555.30;;;0.46;82.20
48404;BME280;34202;52.536;6.042;2023-04-05T04:32:41;102553.33;;;0.43;82.59
48404;BME280;34202;52.536;6.042;2023-04-05T04:38:02;102559.18;;;0.39;82.74
48404;BME280;34202;52.536;6.042;2023-04-05T04:43:04;102555.31;;;0.35;82.91
48404;BME280;34202;52.536;6.042;2023-04-05T04:48:04;102553.24;;;0.33;83.02
48404;BME280;34202;52.536;6.042;2023-04-05T04:53:05;102554.45;;;0.30;82.93
48404;BME280;34202;52.536;6.042;2023-04-05T04:58:06;102548.58;;;0.28;83.26
48404;BME280;34202;52.536;6.042;2023-04-05T05:03:10;102554.34;;;0.27;83.56
48404;BME280;34202;52.536;6.042;2023-04-05T05:08:11;102551.31;;;0.23;83.83
48404;BME280;34202;52.536;6.042;2023-04-05T05:13:12;102550.70;;;0.19;84.03
48404;BME280;34202;52.536;6.042;2023-04-05T05:18:12;102551.84;;;0.16;84.28
48404;BME280;34202;52.536;6.042;2023-04-05T05:23:12;102553.38;;;0.14;84.49
48404;BME280;34202;52.536;6.042;2023-04-05T05:28:13;102552.48;;;0.11;84.87
48404;BME280;34202;52.536;6.042;2023-04-05T05:33:13;102554.17;;;0.11;84.96
48404;BME280;34202;52.536;6.042;2023-04-05T05:38:13;102544.20;;;0.13;85.28
48404;BME280;34202;52.536;6.042;2023-04-05T05:43:14;102540.75;;;0.14;85.34
48404;BME280;34202;52.536;6.042;2023-04-05T05:48:14;102540.31;;;0.15;85.58
48404;BME280;34202;52.536;6.042;2023-04-05T05:53:15;102537.61;;;0.16;85.67
48404;BME280;34202;52.536;6.042;2023-04-05T05:58:15;102539.58;;;0.17;86.02
48404;BME280;34202;52.536;6.042;2023-04-05T06:03:15;102536.32;;;0.19;86.30
48404;BME280;34202;52.536;6.042;2023-04-05T06:08:15;102538.27;;;0.23;86.41
48404;BME280;34202;52.536;6.042;2023-04-05T06:13:16;102537.34;;;0.29;86.66
48404;BME280;34202;52.536;6.042;2023-04-05T06:18:16;102541.96;;;0.35;86.87
48404;BME280;34202;52.536;6.042;2023-04-05T06:23:16;102543.67;;;0.42;87.11
48404;BME280;34202;52.536;6.042;2023-04-05T06:28:16;102547.07;;;0.48;87.26
48404;BME280;34202;52.536;6.042;2023-04-05T06:33:17;102549.52;;;0.53;87.31
48404;BME280;34202;52.536;6.042;2023-04-05T06:38:17;102549.44;;;0.60;87.35
48404;BME280;34202;52.536;6.042;2023-04-05T06:43:17;102547.36;;;0.66;87.84
48404;BME280;34202;52.536;6.042;2023-04-05T06:48:17;102549.39;;;0.75;87.89
48404;BME280;34202;52.536;6.042;2023-04-05T06:53:18;102549.00;;;0.89;88.38
48404;BME280;34202;52.536;6.042;2023-04-05T06:58:18;102551.27;;;1.01;88.69
48404;BME280;34202;52.536;6.042;2023-04-05T07:03:19;102547.80;;;1.17;88.70
48404;BME280;34202;52.536;6.042;2023-04-05T07:08:19;102545.56;;;1.33;89.08
48404;BME280;34202;52.536;6.042;2023-04-05T07:13:21;102547.25;;;1.52;88.84
48404;BME280;34202;52.536;6.042;2023-04-05T07:18:21;102547.17;;;1.74;89.00
48404;BME280;34202;52.536;6.042;2023-04-05T07:23:21;102548.44;;;1.94;89.18
48404;BME280;34202;52.536;6.042;2023-04-05T07:28:21;102548.13;;;2.15;89.32
48404;BME280;34202;52.536;6.042;2023-04-05T07:33:22;102545.59;;;2.36;88.97
48404;BME280;34202;52.536;6.042;2023-04-05T07:38:22;102541.91;;;2.61;88.41
48404;BME280;34202;52.536;6.042;2023-04-05T07:43:22;102540.42;;;2.88;87.82
48404;BME280;34202;52.536;6.042;2023-04-05T07:48:25;102537.39;;;3.16;87.24
48404;BME280;34202;52.536;6.042;2023-04-05T07:53:25;102539.45;;;3.46;86.63
48404;BME280;34202;52.536;6.042;2023-04-05T07:58:25;102538.48;;;3.74;85.62
48404;BME280;34202;52.536;6.042;2023-04-05T08:03:29;102540.73;;;4.03;84.05
48404;BME280;34202;52.536;6.042;2023-04-05T08:08:30;102531.14;;;4.30;82.86
48404;BME280;34202;52.536;6.042;2023-04-05T08:13:31;102529.73;;;4.55;82.03
48404;BME280;34202;52.536;6.042;2023-04-05T08:18:32;102533.47;;;4.82;81.01
48404;BME280;34202;52.536;6.042;2023-04-05T08:23:33;102529.33;;;5.06;80.33
48404;BME280;34202;52.536;6.042;2023-04-05T08:28:33;102524.12;;;5.33;79.86
48404;BME280;34202;52.536;6.042;2023-04-05T08:33:33;102523.88;;;5.61;78.57
48404;BME280;34202;52.536;6.042;2023-04-05T08:38:34;102524.05;;;5.87;77.26
48404;BME280;34202;52.536;6.042;2023-04-05T08:44:17;102522.19;;;6.10;76.40
48404;BME280;34202;52.536;6.042;2023-04-05T08:48:58;102516.10;;;6.40;75.87
48404;BME280;34202;52.536;6.042;2023-04-05T08:53:58;102508.34;;;6.71;75.25
48404;BME280;34202;52.536;6.042;2023-04-05T08:59:03;102508.27;;;7.02;74.55
48404;BME280;34202;52.536;6.042;2023-04-05T09:04:21;102503.66;;;7.30;73.25
48404;BME280;34202;52.536;6.042;2023-04-05T09:09:23;102498.39;;;7.54;70.83
48404;BME280;34202;52.536;6.042;2023-04-05T09:14:23;102498.67;;;7.76;69.95
48404;BME280;34202;52.536;6.042;2023-04-05T09:19:24;102499.59;;;8.01;68.73
48404;BME280;34202;52.536;6.042;2023-04-05T09:24:34;102498.98;;;8.23;67.29
48404;BME280;34202;52.536;6.042;2023-04-05T09:29:40;102494.73;;;8.45;65.79
48404;BME280;34202;52.536;6.042;2023-04-05T09:34:41;102491.52;;;8.51;63.70
48404;BME280;34202;52.536;6.042;2023-04-05T09:39:42;102492.54;;;8.63;63.21
48404;BME280;34202;52.536;6.042;2023-04-05T09:44:53;102486.78;;;8.84;64.06
48404;BME280;34202;52.536;6.042;2023-04-05T09:49:53;102488.85;;;9.14;64.52
48404;BME280;34202;52.536;6.042;2023-04-05T09:54:56;102484.77;;;9.40;63.52
48404;BME280;34202;52.536;6.042;2023-04-05T09:59:56;102485.20;;;9.65;63.60
48404;BME280;34202;52.536;6.042;2023-04-05T10:04:57;102484.21;;;9.91;62.84
48404;BME280;34202;52.536;6.042;2023-04-05T10:09:57;102476.40;;;10.06;60.58
48404;BME280;34202;52.536;6.042;2023-04-05T10:14:57;102474.49;;;10.11;59.12
48404;BME280;34202;52.536;6.042;2023-04-05T10:25:29;102461.19;;;10.39;59.45
48404;BME280;34202;52.536;6.042;2023-04-05T10:30:33;102457.61;;;10.67;59.90
48404;BME280;34202;52.536;6.042;2023-04-05T10:36:21;102455.15;;;10.89;58.25
48404;BME280;34202;52.536;6.042;2023-04-05T10:41:01;102446.05;;;10.93;56.67
48404;BME280;34202;52.536;6.042;2023-04-05T10:46:07;102438.73;;;11.05;56.35
48404;BME280;34202;52.536;6.042;2023-04-05T10:51:07;102428.64;;;11.29;56.77
48404;BME280;34202;52.536;6.042;2023-04-05T10:56:09;102431.11;;;11.48;56.39
48404;BME280;34202;52.536;6.042;2023-04-05T11:01:11;102428.43;;;11.65;56.37
48404;BME280;34202;52.536;6.042;2023-04-05T11:11:22;102410.55;;;11.99;53.76
48404;BME280;34202;52.536;6.042;2023-04-05T11:16:23;102403.56;;;11.87;51.39
48404;BME280;34202;52.536;6.042;2023-04-05T11:21:37;102397.91;;;11.84;51.58
48404;BME280;34202;52.536;6.042;2023-04-05T11:31:59;102392.46;;;12.15;52.06
48404;BME280;34202;52.536;6.042;2023-04-05T11:36:59;102387.29;;;12.32;51.07
48404;BME280;34202;52.536;6.042;2023-04-05T11:42:01;102385.10;;;12.43;50.94
48404;BME280;34202;52.536;6.042;2023-04-05T11:47:02;102383.01;;;12.66;51.27
48404;BME280;34202;52.536;6.042;2023-04-05T11:52:09;102379.80;;;12.87;50.76
48404;BME280;34202;52.536;6.042;2023-04-05T11:57:18;102371.69;;;13.08;51.01
48404;BME280;34202;52.536;6.042;2023-04-05T12:02:19;102361.19;;;13.16;49.19
48404;BME280;34202;52.536;6.042;2023-04-05T12:07:19;102357.40;;;13.27;48.86
48404;BME280;34202;52.536;6.042;2023-04-05T12:12:19;102350.40;;;13.44;48.49
48404;BME280;34202;52.536;6.042;2023-04-05T12:17:35;102346.00;;;13.52;47.55
48404;BME280;34202;52.536;6.042;2023-04-05T12:22:36;102342.77;;;13.39;46.65
48404;BME280;34202;52.536;6.042;2023-04-05T12:27:37;102343.11;;;13.56;48.12
48404;BME280;34202;52.536;6.042;2023-04-05T12:37:41;102336.62;;;13.96;46.17
48404;BME280;34202;52.536;6.042;2023-04-05T12:42:41;102332.02;;;14.02;45.85
48404;BME280;34202;52.536;6.042;2023-04-05T12:47:48;102327.20;;;14.20;45.42
48404;BME280;34202;52.536;6.042;2023-04-05T12:52:52;102320.76;;;14.22;44.21
48404;BME280;34202;52.536;6.042;2023-04-05T12:57:53;102314.56;;;14.17;43.63
48404;BME280;34202;52.536;6.042;2023-04-05T13:02:55;102308.77;;;14.17;43.92
48404;BME280;34202;52.536;6.042;2023-04-05T13:07:56;102304.70;;;14.26;44.02
48404;BME280;34202;52.536;6.042;2023-04-05T13:12:57;102302.52;;;14.21;42.60
48404;BME280;34202;52.536;6.042;2023-04-05T13:17:57;102293.86;;;13.82;41.70
48404;BME280;34202;52.536;6.042;2023-04-05T13:22:57;102291.43;;;13.83;42.39
48404;BME280;34202;52.536;6.042;2023-04-05T13:27:58;102287.31;;;13.88;42.89
48404;BME280;34202;52.536;6.042;2023-04-05T13:32:58;102281.63;;;14.04;43.24
48404;BME280;34202;52.536;6.042;2023-04-05T13:37:58;102273.91;;;14.27;43.84
48404;BME280;34202;52.536;6.042;2023-04-05T13:43:00;102265.44;;;14.48;43.69
48404;BME280;34202;52.536;6.042;2023-04-05T13:48:00;102262.34;;;14.63;43.28
48404;BME280;34202;52.536;6.042;2023-04-05T13:53:01;102256.08;;;14.67;42.60
48404;BME280;34202;52.536;6.042;2023-04-05T13:58:01;102248.25;;;14.73;42.83
48404;BME280;34202;52.536;6.042;2023-04-05T14:03:02;102246.77;;;14.79;42.68
48404;BME280;34202;52.536;6.042;2023-04-05T14:08:02;102239.88;;;14.76;41.30
48404;BME280;34202;52.536;6.042;2023-04-05T14:13:02;102234.56;;;14.32;40.09
48404;BME280;34202;52.536;6.042;2023-04-05T14:18:03;102226.36;;;14.08;41.30
48404;BME280;34202;52.536;6.042;2023-04-05T14:23:03;102218.58;;;14.16;42.10
48404;BME280;34202;52.536;6.042;2023-04-05T14:28:04;102215.55;;;13.88;40.27
48404;BME280;34202;52.536;6.042;2023-04-05T14:33:04;102211.06;;;13.57;40.70
48404;BME280;34202;52.536;6.042;2023-04-05T14:38:05;102203.33;;;13.44;41.08
48404;BME280;34202;52.536;6.042;2023-04-05T14:43:05;102197.23;;;13.15;41.01
48404;BME280;34202;52.536;6.042;2023-04-05T14:48:05;102197.21;;;12.96;41.06
48404;BME280;34202;52.536;6.042;2023-04-05T14:53:05;102198.30;;;12.70;40.82
48404;BME280;34202;52.536;6.042;2023-04-05T14:58:06;102197.98;;;12.46;41.15
48404;BME280;34202;52.536;6.042;2023-04-05T15:03:06;102190.61;;;12.28;40.86
48404;BME280;34202;52.536;6.042;2023-04-05T15:08:06;102183.88;;;12.06;41.21
48404;BME280;34202;52.536;6.042;2023-04-05T15:13:07;102181.19;;;12.03;41.98
48404;BME280;34202;52.536;6.042;2023-04-05T15:18:07;102176.86;;;11.97;41.10
48404;BME280;34202;52.536;6.042;2023-04-05T15:23:08;102170.45;;;11.77;40.98
48404;BME280;34202;52.536;6.042;2023-04-05T15:28:08;102166.55;;;11.67;41.16
48404;BME280;34202;52.536;6.042;2023-04-05T15:33:08;102169.33;;;11.59;41.36
48404;BME280;34202;52.536;6.042;2023-04-05T15:38:08;102159.48;;;11.56;41.49
48404;BME280;34202;52.536;6.042;2023-04-05T15:43:09;102154.67;;;11.51;41.34
48404;BME280;34202;52.536;6.042;2023-04-05T15:48:09;102154.43;;;11.41;41.40
48404;BME280;34202;52.536;6.042;2023-04-05T15:53:12;102150.70;;;11.38;42.03
48404;BME280;34202;52.536;6.042;2023-04-05T15:58:12;102145.64;;;11.37;42.04
48404;BME280;34202;52.536;6.042;2023-04-05T16:03:13;102145.83;;;11.31;42.03
48404;BME280;34202;52.536;6.042;2023-04-05T16:08:13;102148.08;;;11.23;42.17
48404;BME280;34202;52.536;6.042;2023-04-05T16:13:13;102143.80;;;11.13;42.34
48404;BME280;34202;52.536;6.042;2023-04-05T16:18:15;102141.48;;;11.04;42.30
48404;BME280;34202;52.536;6.042;2023-04-05T16:23:18;102134.89;;;10.91;42.24
48404;BME280;34202;52.536;6.042;2023-04-05T16:28:18;102130.30;;;10.82;42.52
48404;BME280;34202;52.536;6.042;2023-04-05T16:33:19;102125.71;;;10.73;42.13
48404;BME280;34202;52.536;6.042;2023-04-05T16:38:19;102122.80;;;10.62;42.07
48404;BME280;34202;52.536;6.042;2023-04-05T16:43:48;102120.52;;;10.55;42.38
48404;BME280;34202;52.536;6.042;2023-04-05T16:48:50;102121.77;;;10.43;42.69
48404;BME280;34202;52.536;6.042;2023-04-05T16:53:50;102119.14;;;10.36;43.05
48404;BME280;34202;52.536;6.042;2023-04-05T16:58:50;102118.06;;;10.30;43.45
48404;BME280;34202;52.536;6.042;2023-04-05T17:03:51;102114.16;;;10.21;43.35
48404;BME280;34202;52.536;6.042;2023-04-05T17:08:51;102113.75;;;10.13;43.19
48404;BME280;34202;52.536;6.042;2023-04-05T17:13:52;102110.96;;;10.07;43.46
48404;BME280;34202;52.536;6.042;2023-04-05T17:18:52;102111.52;;;10.02;43.79
48404;BME280;34202;52.536;6.042;2023-04-05T17:23:52;102110.33;;;9.96;43.99
48404;BME280;34202;52.536;6.042;2023-04-05T17:28:53;102108.73;;;9.90;44.07
48404;BME280;34202;52.536;6.042;2023-04-05T17:33:53;102108.48;;;9.81;44.14
48404;BME280;34202;52.536;6.042;2023-04-05T17:38:53;102108.36;;;9.72;44.20
48404;BME280;34202;52.536;6.042;2023-04-05T17:43:53;102107.42;;;9.63;44.24
48404;BME280;34202;52.536;6.042;2023-04-05T17:48:54;102111.67;;;9.55;44.80
48404;BME280;34202;52.536;6.042;2023-04-05T17:53:55;102113.11;;;9.45;44.96
48404;BME280;34202;52.536;6.042;2023-04-05T17:58:56;102111.62;;;9.37;45.39
48404;BME280;34202;52.536;6.042;2023-04-05T18:03:56;102115.85;;;9.28;45.55
48404;BME280;34202;52.536;6.042;2023-04-05T18:08:58;102117.48;;;9.20;45.83
48404;BME280;34202;52.536;6.042;2023-04-05T18:13:58;102118.05;;;9.10;46.33
48404;BME280;34202;52.536;6.042;2023-04-05T18:18:59;102115.09;;;9.00;46.58
48404;BME280;34202;52.536;6.042;2023-04-05T18:23:59;102114.92;;;8.89;46.86
48404;BME280;34202;52.536;6.042;2023-04-05T18:29:00;102113.75;;;8.80;47.14
48404;BME280;34202;52.536;6.042;2023-04-05T18:34:00;102118.43;;;8.70;47.32
48404;BME280;34202;52.536;6.042;2023-04-05T18:39:00;102122.10;;;8.60;47.28
48404;BME280;34202;52.536;6.042;2023-04-05T18:44:03;102125.17;;;8.50;47.50
48404;BME280;34202;52.536;6.042;2023-04-05T18:49:04;102127.70;;;8.39;47.63
48404;BME280;34202;52.536;6.042;2023-04-05T18:54:04;102129.40;;;8.28;47.72
48404;BME280;34202;52.536;6.042;2023-04-05T18:59:05;102131.63;;;8.18;48.15
48404;BME280;34202;52.536;6.042;2023-04-05T19:04:05;102129.48;;;8.07;48.44
48404;BME280;34202;52.536;6.042;2023-04-05T19:09:06;102134.11;;;7.96;48.76
48404;BME280;34202;52.536;6.042;2023-04-05T19:14:06;102132.86;;;7.86;48.99
48404;BME280;34202;52.536;6.042;2023-04-05T19:19:07;102137.50;;;7.76;49.20
48404;BME280;34202;52.536;6.042;2023-04-05T19:24:07;102137.80;;;7.66;49.27
48404;BME280;34202;52.536;6.042;2023-04-05T19:29:08;102142.27;;;7.57;49.49
48404;BME280;34202;52.536;6.042;2023-04-05T19:34:09;102146.77;;;7.48;49.76
48404;BME280;34202;52.536;6.042;2023-04-05T19:39:10;102144.00;;;7.39;49.76
48404;BME280;34202;52.536;6.042;2023-04-05T19:44:10;102139.69;;;7.31;50.07
48404;BME280;34202;52.536;6.042;2023-04-05T19:49:12;102138.31;;;7.23;50.23
48404;BME280;34202;52.536;6.042;2023-04-05T19:54:13;102132.98;;;7.15;50.36
48404;BME280;34202;52.536;6.042;2023-04-05T19:59:24;102132.70;;;7.08;50.55
48404;BME280;34202;52.536;6.042;2023-04-05T20:04:26;102133.39;;;7.00;50.68
48404;BME280;34202;52.536;6.042;2023-04-05T20:09:27;102128.12;;;6.94;51.04
48404;BME280;34202;52.536;6.042;2023-04-05T20:14:29;102128.98;;;6.87;51.11
48404;BME280;34202;52.536;6.042;2023-04-05T20:19:33;102126.86;;;6.77;51.38
48404;BME280;34202;52.536;6.042;2023-04-05T20:24:37;102124.77;;;6.69;51.67
48404;BME280;34202;52.536;6.042;2023-04-05T20:29:38;102120.80;;;6.61;52.13
48404;BME280;34202;52.536;6.042;2023-04-05T20:34:38;102115.10;;;6.53;52.15
48404;BME280;34202;52.536;6.042;2023-04-05T20:39:38;102112.67;;;6.45;52.46
48404;BME280;34202;52.536;6.042;2023-04-05T20:44:39;102111.66;;;6.37;52.61
48404;BME280;34202;52.536;6.042;2023-04-05T20:49:40;102107.20;;;6.30;52.59
48404;BME280;34202;52.536;6.042;2023-04-05T20:54:40;102102.43;;;6.24;52.71
48404;BME280;34202;52.536;6.042;2023-04-05T20:59:40;102097.13;;;6.17;52.70
48404;BME280;34202;52.536;6.042;2023-04-05T21:04:41;102096.48;;;6.11;52.84
48404;BME280;34202;52.536;6.042;2023-04-05T21:09:41;102089.64;;;6.05;53.15
48404;BME280;34202;52.536;6.042;2023-04-05T21:14:41;102087.45;;;5.98;53.09
48404;BME280;34202;52.536;6.042;2023-04-05T21:19:42;102088.00;;;5.92;53.37
48404;BME280;34202;52.536;6.042;2023-04-05T21:24:42;102080.27;;;5.86;53.39
48404;BME280;34202;52.536;6.042;2023-04-05T21:29:42;102074.61;;;5.79;53.58
48404;BME280;34202;52.536;6.042;2023-04-05T21:34:42;102069.20;;;5.74;53.64
48404;BME280;34202;52.536;6.042;2023-04-05T21:39:43;102069.61;;;5.68;53.66
48404;BME280;34202;52.536;6.042;2023-04-05T21:44:44;102067.94;;;5.61;53.79
48404;BME280;34202;52.536;6.042;2023-04-05T21:49:44;102068.09;;;5.54;53.92
48404;BME280;34202;52.536;6.042;2023-04-05T21:54:44;102063.28;;;5.47;54.07
48404;BME280;34202;52.536;6.042;2023-04-05T21:59:45;102064.32;;;5.39;54.11
48404;BME280;34202;52.536;6.042;2023-04-05T22:04:45;102064.67;;;5.33;54.26
48404;BME280;34202;52.536;6.042;2023-04-05T22:09:45;102057.81;;;5.26;54.22
48404;BME280;34202;52.536;6.042;2023-04-05T22:14:46;102055.64;;;5.20;54.44
48404;BME280;34202;52.536;6.042;2023-04-05T22:19:46;102054.84;;;5.14;54.52
48404;BME280;34202;52.536;6.042;2023-04-05T22:24:47;102053.08;;;5.10;54.50
48404;BME280;34202;52.536;6.042;2023-04-05T22:29:48;102053.66;;;5.04;54.74
48404;BME280;34202;52.536;6.042;2023-04-05T22:34:48;102050.66;;;4.99;54.88
48404;BME280;34202;52.536;6.042;2023-04-05T22:39:49;102050.09;;;4.95;54.84
48404;BME280;34202;52.536;6.042;2023-04-05T22:44:50;102048.17;;;4.91;54.80
48404;BME280;34202;52.536;6.042;2023-04-05T22:49:50;102046.38;;;4.86;55.09
48404;BME280;34202;52.536;6.042;2023-04-05T22:54:51;102047.67;;;4.80;55.12
48404;BME280;34202;52.536;6.042;2023-04-05T22:59:51;102044.38;;;4.77;55.29
48404;BME280;34202;52.536;6.042;2023-04-05T23:04:51;102039.40;;;4.74;55.66
48404;BME280;34202;52.536;6.042;2023-04-05T23:09:52;102035.80;;;4.71;56.06
48404;BME280;34202;52.536;6.042;2023-04-05T23:14:52;102032.84;;;4.67;56.12
48404;BME280;34202;52.536;6.042;2023-04-05T23:19:53;102031.44;;;4.62;56.09
48404;BME280;34202;52.536;6.042;2023-04-05T23:24:53;102022.21;;;4.58;56.34
48404;BME280;34202;52.536;6.042;2023-04-05T23:29:53;102017.55;;;4.54;56.37
48404;BME280;34202;52.536;6.042;2023-04-05T23:34:54;102009.48;;;4.48;56.66
48404;BME280;34202;52.536;6.042;2023-04-05T23:39:54;102008.33;;;4.42;56.83
48404;BME280;34202;52.536;6.042;2023-04-05T23:44:54;102005.51;;;4.37;57.10
48404;BME280;34202;52.536;6.042;2023-04-05T23:49:55;101997.98;;;4.31;57.40
48404;BME280;34202;52.536;6.042;2023-04-05T23:54:55;101993.67;;;4.25;57.56
